FMNA

Arrachart Airport

Airport
ICAO code
FMNA
IATA Code
DIE
Summary
ICAO Region
AFI
ICAO Territory
Location

Arrachart, Diana

Serving
Antsiranana
Elevation
374 ft
Coordinates
12° 20' 57" S , 49° 17' 30" E
KCC
Metar
FMNA 200500Z 14021G30KT 9999 FEW020 25/17 Q1017

Arrachart Airport is an airport located near Antsiranana (formerly Diego-Suárez) in Madagascar.

Climatology

Tropical savanna climate (Köppen climate classification Aw)

Runways

Designator Length Width Surface Rops
13/31 1500 30 ASP Yes/Yes

Airport map

Aerial View

SKYbrary Partners:

Safety knowledge contributed by: